Time;durP1;ratioP1;P1;durP2;ratioP2;P2;SDS_P1;SDS_P2;PMS_P1;PMS_P2;Temp;Humidity;BMP_temperature;BMP_pressure;BME280_temperature;BME280_humidity;BME280_pressure;Samples;Min_cycle;Max_cycle;Signal;HPM_P1;HPM_P2
2023/06/18 00:00:53;;;;;;;13.02;3.92;;;;;;;13.12;100.00;100283.03;6220515;23;20012;-87
2023/06/18 00:03:19;;;;;;;7.28;3.75;;;;;;;13.18;100.00;100291.16;6220524;23;20008;-86
2023/06/18 00:05:45;;;;;;;7.72;3.40;;;;;;;13.21;100.00;100284.53;6247431;22;20483;-87
2023/06/18 00:08:10;;;;;;;9.80;4.03;;;;;;;13.17;100.00;100283.25;6220622;23;20004;-87
2023/06/18 00:10:36;;;;;;;9.20;4.22;;;;;;;13.10;100.00;100264.38;6195698;23;20003;-86
2023/06/18 00:13:02;;;;;;;10.23;4.85;;;;;;;13.09;100.00;100278.88;6220623;23;20008;-84
2023/06/18 00:15:27;;;;;;;8.43;4.38;;;;;;;12.91;100.00;100265.13;6195089;23;20054;-87
2023/06/18 00:17:53;;;;;;;2.00;1.42;;;;;;;12.90;100.00;100274.28;6220312;23;20085;-86
2023/06/18 00:20:19;;;;;;;10.40;4.38;;;;;;;12.97;100.00;100277.84;6220641;23;20059;-86
2023/06/18 00:22:48;;;;;;;10.10;4.43;;;;;;;12.89;100.00;100280.72;6220101;23;20333;-85
2023/06/18 00:25:14;;;;;;;10.35;4.22;;;;;;;12.66;100.00;100259.47;6245458;23;20011;-85
2023/06/18 00:27:40;;;;;;;9.20;4.63;;;;;;;12.62;100.00;100260.88;6245723;23;19996;-86
2023/06/18 00:30:07;;;;;;;11.45;5.20;;;;;;;12.60;100.00;100277.28;6220707;23;20053;-87
2023/06/18 00:32:32;;;;;;;8.82;4.07;;;;;;;12.56;100.00;100267.91;6220367;23;20061;-85
2023/06/18 00:35:00;;;;;;;8.82;4.57;;;;;;;12.60;100.00;100271.06;6219886;23;20079;-86
2023/06/18 00:37:27;;;;;;;6.80;4.20;;;;;;;12.53;100.00;100260.22;6247118;22;20023;-86
2023/06/18 00:39:54;;;;;;;10.00;4.75;;;;;;;12.50;100.00;100263.34;6245684;23;20036;-85
2023/06/18 00:42:20;;;;;;;8.73;4.82;;;;;;;12.42;100.00;100258.94;6245218;23;20004;-86
2023/06/18 00:44:47;;;;;;;10.32;4.70;;;;;;;12.45;100.00;100258.53;6245306;23;20428;-86
2023/06/18 00:47:13;;;;;;;8.85;5.07;;;;;;;12.44;100.00;100256.88;6195192;23;19996;-86
2023/06/18 00:49:42;;;;;;;9.35;4.50;;;;;;;12.42;100.00;100258.94;6195050;23;20011;-86
2023/06/18 00:52:14;;;;;;;9.30;4.05;;;;;;;12.32;100.00;100245.81;6220343;23;20012;-86
2023/06/18 00:54:41;;;;;;;8.25;4.13;;;;;;;12.48;100.00;100260.81;6245685;23;20000;-84
2023/06/18 00:57:08;;;;;;;11.32;5.40;;;;;;;12.48;100.00;100251.91;6246691;22;20011;-86
2023/06/18 00:59:37;;;;;;;12.65;5.28;;;;;;;12.52;100.00;100258.56;6195036;23;20000;-85
2023/06/18 01:02:03;;;;;;;12.93;5.40;;;;;;;12.46;100.00;100257.53;6220201;23;20453;-84
2023/06/18 01:04:32;;;;;;;11.93;5.10;;;;;;;12.47;100.00;100239.47;6245284;23;20035;-86
2023/06/18 01:07:13;;;;;;;8.45;4.03;;;;;;;12.52;100.00;100253.19;5070833;27;20394;-84
2023/06/18 01:09:40;;;;;;;9.68;5.38;;;;;;;12.57;100.00;100244.47;5069696;28;20525;-82
2023/06/18 01:12:07;;;;;;;12.88;5.25;;;;;;;12.60;100.00;100244.09;5069559;28;20024;-88
2023/06/18 01:14:37;;;;;;;14.05;6.38;;;;;;;12.48;100.00;100239.25;5053310;28;20383;-85
2023/06/18 01:17:03;;;;;;;12.75;5.88;;;;;;;12.43;100.00;100248.97;5036907;28;20033;-86
2023/06/18 01:19:32;;;;;;;15.32;5.90;;;;;;;12.41;100.00;100251.91;5036581;28;20475;-87
2023/06/18 01:22:01;;;;;;;15.43;5.63;;;;;;;12.40;100.00;100244.00;5052839;28;20386;-86
2023/06/18 01:24:30;;;;;;;13.25;6.32;;;;;;;12.37;100.00;100245.22;5036412;28;20095;-86
2023/06/18 01:26:56;;;;;;;12.55;5.47;;;;;;;12.35;100.00;100246.44;5036089;28;20387;-85
2023/06/18 01:29:26;;;;;;;9.48;4.90;;;;;;;12.26;100.00;100240.41;5052584;28;20032;-86
2023/06/18 01:31:52;;;;;;;13.63;6.13;;;;;;;12.25;100.00;100233.31;5069286;28;20029;-86
2023/06/18 01:34:18;;;;;;;12.00;5.38;;;;;;;12.19;100.00;100240.34;5036141;28;20058;-86
2023/06/18 01:37:14;;;;;;;19.75;6.95;;;;;;;12.07;100.00;100233.88;5069346;28;20036;-86
2023/06/18 01:40:07;;;;;;;14.15;6.00;;;;;;;12.00;100.00;100236.53;5069639;28;20029;-84
2023/06/18 01:42:35;;;;;;;11.00;5.15;;;;;;;11.90;100.00;100241.41;5050985;28;20396;-86
2023/06/18 01:45:21;;;;;;;13.07;5.78;;;;;;;11.90;100.00;100238.72;5069035;28;20024;-87
2023/06/18 01:47:47;;;;;;;13.18;5.82;;;;;;;11.78;100.00;100227.66;5051969;28;20040;-87
2023/06/18 01:50:13;;;;;;;14.20;5.85;;;;;;;11.86;100.00;100237.47;5052117;28;20025;-87
2023/06/18 01:52:41;;;;;;;11.15;4.57;;;;;;;11.83;100.00;100235.97;5052619;28;20059;-86
2023/06/18 01:55:08;;;;;;;9.75;4.88;;;;;;;11.77;100.00;100225.13;5068919;28;20029;-86
2023/06/18 01:57:34;;;;;;;10.43;5.13;;;;;;;11.80;100.00;100224.75;5068830;28;20029;-86
2023/06/18 02:00:00;;;;;;;11.02;5.78;;;;;;;11.76;100.00;100231.56;5035831;28;20481;-86
2023/06/18 02:02:26;;;;;;;16.13;6.32;;;;;;;11.86;100.00;100234.78;5035913;28;20041;-86
2023/06/18 02:04:52;;;;;;;10.32;4.95;;;;;;;12.09;100.00;100223.72;5052100;28;20094;-87
2023/06/18 02:07:17;;;;;;;16.58;6.65;;;;;;;12.18;100.00;100219.84;5035861;28;20037;-86
2023/06/18 02:09:43;;;;;;;8.43;4.43;;;;;;;12.28;100.00;100225.69;5035611;28;20418;-87
2023/06/18 02:12:09;;;;;;;13.35;6.30;;;;;;;12.32;100.00;100223.41;5035546;28;20068;-84
2023/06/18 02:14:34;;;;;;;13.85;5.72;;;;;;;12.37;100.00;100230.91;5035159;28;20071;-87
2023/06/18 02:17:01;;;;;;;13.52;6.30;;;;;;;12.34;100.00;100226.75;5046286;28;20039;-86
2023/06/18 02:19:27;;;;;;;11.45;5.45;;;;;;;12.34;100.00;100224.06;5055193;28;20467;-86
2023/06/18 02:21:53;;;;;;;12.55;5.78;;;;;;;12.37;100.00;100229.03;5022253;28;20037;-86
2023/06/18 02:24:19;;;;;;;16.63;7.80;;;;;;;12.34;100.00;100228.63;5022175;28;20060;-86
2023/06/18 02:26:45;;;;;;;14.90;5.82;;;;;;;12.26;100.00;100226.94;5022002;28;20029;-85
2023/06/18 02:29:10;;;;;;;12.85;6.18;;;;;;;12.21;100.00;100230.22;5038023;28;20040;-86
2023/06/18 02:31:36;;;;;;;10.68;5.55;;;;;;;12.21;100.00;100224.81;5055906;28;20415;-85
2023/06/18 02:34:02;;;;;;;13.27;6.43;;;;;;;12.26;100.00;100216.16;5021980;28;20029;-86
2023/06/18 02:36:28;;;;;;;10.77;5.15;;;;;;;12.24;100.00;100216.34;5021832;28;20028;-83
2023/06/18 02:38:55;;;;;;;16.77;6.75;;;;;;;12.34;100.00;100207.88;5038353;28;20066;-85
2023/06/18 02:41:21;;;;;;;14.15;6.60;;;;;;;12.46;100.00;100214.38;5038176;28;20537;-86
2023/06/18 02:43:49;;;;;;;13.88;5.68;;;;;;;12.49;100.00;100192.41;5021812;28;20037;-86
2023/06/18 02:46:21;;;;;;;14.88;6.47;;;;;;;12.60;100.00;100207.16;5054724;28;20057;-85
2023/06/18 02:48:46;;;;;;;14.80;6.05;;;;;;;12.62;100.00;100212.31;5021762;28;20036;-86
2023/06/18 02:51:12;;;;;;;12.25;5.47;;;;;;;12.67;100.00;100210.69;5021724;28;20037;-85
2023/06/18 02:53:37;;;;;;;14.07;6.03;;;;;;;12.75;100.00;100206.97;5021663;28;20037;-86
2023/06/18 02:56:03;;;;;;;7.53;4.82;;;;;;;12.77;100.00;100203.03;5021614;28;20035;-86
2023/06/18 02:58:29;;;;;;;13.45;5.95;;;;;;;12.91;100.00;100201.22;5021594;28;20033;-85
2023/06/18 03:01:02;;;;;;;11.15;6.03;;;;;;;13.07;100.00;100208.09;5021314;28;20048;-86
2023/06/18 03:03:28;;;;;;;12.77;6.15;;;;;;;13.12;100.00;100200.19;5038552;28;20060;-86
2023/06/18 03:05:54;;;;;;;11.85;5.75;;;;;;;13.17;100.00;100197.69;5020977;28;20033;-86
2023/06/18 03:08:20;;;;;;;1.10;1.00;;;;;;;13.21;100.00;100195.44;5021454;28;20044;-86
2023/06/18 03:10:46;;;;;;;11.27;6.25;;;;;;;13.32;100.00;100199.44;5021330;28;20467;-84
2023/06/18 03:13:12;;;;;;;12.10;6.47;;;;;;;13.33;100.00;100196.50;5021239;28;20044;-86
2023/06/18 03:15:38;;;;;;;11.48;5.68;;;;;;;13.40;100.00;100194.63;5021381;28;20037;-85
2023/06/18 03:18:03;;;;;;;13.35;5.63;;;;;;;13.36;100.00;100201.50;5021187;28;20052;-86
2023/06/18 03:20:30;;;;;;;14.77;6.43;;;;;;;13.34;100.00;100189.25;5037675;28;20124;-85
2023/06/18 03:22:56;;;;;;;14.25;5.75;;;;;;;13.31;100.00;100192.34;5037914;28;20079;-87
2023/06/18 03:25:21;;;;;;;15.18;6.63;;;;;;;13.25;100.00;100185.88;5021159;28;20475;-86
2023/06/18 03:27:48;;;;;;;13.48;5.55;;;;;;;13.23;100.00;100195.22;5020940;28;20040;-86
2023/06/18 03:30:14;;;;;;;11.60;5.88;;;;;;;13.08;100.00;100188.16;5020172;28;20044;-86
2023/06/18 03:32:40;;;;;;;12.05;5.35;;;;;;;12.90;100.00;100187.94;5020972;28;20120;-86
2023/06/18 03:35:06;;;;;;;12.38;5.80;;;;;;;12.76;100.00;100182.50;5037257;28;20052;-86
2023/06/18 03:37:32;;;;;;;11.70;5.70;;;;;;;12.62;100.00;100182.66;5037248;28;20559;-85
2023/06/18 03:39:58;;;;;;;14.30;5.00;;;;;;;12.48;100.00;100181.78;5020813;28;20132;-87
2023/06/18 03:42:24;;;;;;;11.45;5.30;;;;;;;12.38;100.00;100181.34;5020729;28;20071;-86
2023/06/18 03:44:49;;;;;;;9.32;4.90;;;;;;;12.26;100.00;100173.00;5020523;28;20053;-86
2023/06/18 03:47:16;;;;;;;9.38;5.15;;;;;;;12.30;100.00;100185.91;5053259;28;20103;-83
2023/06/18 03:49:41;;;;;;;8.63;4.82;;;;;;;12.34;100.00;100177.41;5020443;28;20033;-86
2023/06/18 03:52:07;;;;;;;9.43;4.47;;;;;;;12.35;100.00;100187.16;5020563;28;20041;-86
2023/06/18 03:54:33;;;;;;;13.82;4.80;;;;;;;12.36;100.00;100178.88;5036822;28;20029;-87
2023/06/18 03:56:58;;;;;;;3.60;2.42;;;;;;;12.45;100.00;100179.50;5020514;28;20029;-83
2023/06/18 03:59:24;;;;;;;11.38;5.03;;;;;;;12.43;100.00;100178.88;5020455;28;20029;-86
2023/06/18 04:01:51;;;;;;;9.18;4.72;;;;;;;12.55;100.00;100177.25;5036429;28;20063;-86
2023/06/18 04:04:16;;;;;;;14.10;5.10;;;;;;;12.51;100.00;100170.59;5036910;28;20055;-86
2023/06/18 04:06:42;;;;;;;15.35;5.38;;;;;;;12.58;100.00;100176.84;5036384;28;20033;-85
2023/06/18 04:09:08;;;;;;;8.48;4.72;;;;;;;12.55;100.00;100169.19;5020296;28;20120;-85
2023/06/18 04:11:37;;;;;;;9.73;5.03;;;;;;;12.61;100.00;100168.34;5020117;28;20076;-85
2023/06/18 04:14:03;;;;;;;11.82;4.88;;;;;;;12.73;100.00;100179.41;5036622;28;20082;-85
2023/06/18 04:16:28;;;;;;;13.90;5.20;;;;;;;12.84;100.00;100170.69;5020034;28;20033;-86
2023/06/18 04:18:54;;;;;;;9.80;5.28;;;;;;;12.83;100.00;100163.63;5036396;28;20037;-86
2023/06/18 04:21:20;;;;;;;7.38;3.90;;;;;;;12.95;100.00;100169.25;5019906;28;20041;-85
2023/06/18 04:23:46;;;;;;;11.38;5.22;;;;;;;13.06;100.00;100163.25;5019995;28;20471;-85
2023/06/18 04:26:11;;;;;;;11.93;5.53;;;;;;;13.19;100.00;100173.22;5019972;28;20037;-85
2023/06/18 04:28:37;;;;;;;10.93;4.80;;;;;;;13.17;100.00;100170.72;5020007;28;20432;-86
2023/06/18 04:31:03;;;;;;;11.35;5.20;;;;;;;13.10;100.00;100163.69;5019784;28;20128;-86
2023/06/18 04:33:29;;;;;;;11.40;4.90;;;;;;;13.13;100.00;100172.19;5036277;28;20041;-85
2023/06/18 04:35:54;;;;;;;9.55;5.03;;;;;;;13.08;100.00;100176.53;5019712;28;20124;-85
2023/06/18 04:38:21;;;;;;;9.77;4.25;;;;;;;13.02;100.00;100161.16;5019797;28;20065;-85
2023/06/18 04:40:48;;;;;;;11.20;5.28;;;;;;;12.98;100.00;100166.97;5035985;28;20094;-86
2023/06/18 04:43:14;;;;;;;6.80;4.05;;;;;;;13.02;100.00;100167.41;5026604;28;20108;-85
2023/06/18 04:45:40;;;;;;;11.77;4.70;;;;;;;13.02;100.00;100178.19;5073894;28;20013;-85
2023/06/18 04:48:07;;;;;;;13.55;4.85;;;;;;;12.91;100.00;100158.06;5021195;28;20053;-86
2023/06/18 04:50:33;;;;;;;7.60;3.95;;;;;;;13.00;100.00;100176.75;5019864;28;20106;-85
2023/06/18 04:52:59;;;;;;;8.75;5.07;;;;;;;13.08;100.00;100174.66;5019637;28;20049;-85
2023/06/18 04:55:24;;;;;;;12.73;5.63;;;;;;;13.18;100.00;100169.69;5019560;28;20111;-86
2023/06/18 04:57:50;;;;;;;9.57;4.78;;;;;;;13.28;100.00;100171.16;5019587;28;20025;-87
2023/06/18 05:00:17;;;;;;;8.85;5.30;;;;;;;13.30;100.00;100175.31;5019589;28;20040;-85
2023/06/18 05:02:43;;;;;;;9.32;4.78;;;;;;;13.33;100.00;100172.19;5052395;28;20032;-86
2023/06/18 05:05:09;;;;;;;12.45;5.82;;;;;;;13.51;100.00;100178.84;5052692;28;20045;-87
2023/06/18 05:07:35;;;;;;;7.45;4.65;;;;;;;13.86;100.00;100174.00;5019605;28;20028;-85
2023/06/18 05:10:01;;;;;;;9.93;4.57;;;;;;;14.15;100.00;100179.94;5019528;28;20039;-87
2023/06/18 05:12:26;;;;;;;10.80;4.90;;;;;;;14.85;100.00;100180.91;5019298;28;20051;-86
2023/06/18 05:14:52;;;;;;;13.65;5.82;;;;;;;15.58;100.00;100171.34;5019397;28;20124;-86
2023/06/18 05:17:20;;;;;;;12.82;6.10;;;;;;;16.13;100.00;100176.03;5019448;28;20033;-86
2023/06/18 05:19:46;;;;;;;13.02;6.32;;;;;;;16.48;100.00;100170.78;5035988;28;20056;-86
2023/06/18 05:22:12;;;;;;;15.35;6.47;;;;;;;16.58;100.00;100176.50;5019294;28;20041;-86
2023/06/18 05:24:37;;;;;;;11.48;5.72;;;;;;;16.15;100.00;100182.88;5019289;28;20040;-85
2023/06/18 05:27:03;;;;;;;11.05;5.35;;;;;;;15.66;100.00;100181.06;5018949;28;20033;-84
2023/06/18 05:29:29;;;;;;;12.43;5.43;;;;;;;15.29;100.00;100181.81;5018955;28;20098;-85
2023/06/18 05:31:54;;;;;;;10.45;5.25;;;;;;;15.03;100.00;100182.88;5019228;28;20383;-86
2023/06/18 05:34:20;;;;;;;8.10;4.95;;;;;;;14.92;100.00;100181.69;5019189;28;20037;-85
2023/06/18 05:36:46;;;;;;;9.13;4.57;;;;;;;14.83;100.00;100180.28;5018930;28;20037;-85
2023/06/18 05:39:11;;;;;;;10.02;5.43;;;;;;;14.76;100.00;100186.78;5035503;28;20029;-85
2023/06/18 05:41:37;;;;;;;9.00;5.32;;;;;;;14.72;100.00;100175.56;5019146;28;20052;-86
2023/06/18 05:44:03;;;;;;;11.02;5.63;;;;;;;14.79;100.00;100189.03;5035426;28;20428;-85
2023/06/18 05:46:28;;;;;;;11.82;5.30;;;;;;;14.84;100.00;100192.75;5018778;28;20032;-84
2023/06/18 05:48:54;;;;;;;12.02;5.75;;;;;;;14.84;100.00;100183.81;5019112;28;20025;-85
2023/06/18 05:51:20;;;;;;;11.73;5.28;;;;;;;14.79;100.00;100186.34;5019024;28;20478;-85
2023/06/18 05:53:45;;;;;;;10.20;5.80;;;;;;;14.76;100.00;100184.06;5022429;28;20472;-85
2023/06/18 05:56:11;;;;;;;9.00;4.88;;;;;;;15.99;100.00;100189.72;5022725;28;20468;-86
2023/06/18 05:58:36;;;;;;;14.65;6.03;;;;;;;17.18;100.00;100183.81;5022680;28;20043;-85
2023/06/18 06:01:02;;;;;;;11.68;5.53;;;;;;;17.96;100.00;100182.66;5039028;28;20036;-86
2023/06/18 06:03:28;;;;;;;12.43;5.78;;;;;;;18.53;100.00;100184.66;5022587;28;20450;-85
2023/06/18 06:05:53;;;;;;;11.52;5.38;;;;;;;19.00;100.00;100178.19;5022177;28;20033;-82
2023/06/18 06:08:19;;;;;;;9.10;5.55;;;;;;;19.51;100.00;100168.97;5038832;28;20028;-85
2023/06/18 06:10:45;;;;;;;3.47;1.98;;;;;;;19.70;100.00;100182.38;5022421;28;20033;-84
2023/06/18 06:13:10;;;;;;;8.15;5.30;;;;;;;20.11;100.00;100172.84;5022380;28;20044;-84
2023/06/18 06:15:36;;;;;;;8.70;4.90;;;;;;;20.39;100.00;100149.16;5022332;28;20044;-81
2023/06/18 06:18:02;;;;;;;10.95;5.35;;;;;;;20.35;100.00;100173.41;5022316;28;20061;-84
2023/06/18 06:20:28;;;;;;;9.48;5.13;;;;;;;20.79;100.00;100173.38;5021983;28;20123;-82
2023/06/18 06:22:53;;;;;;;9.27;4.82;;;;;;;20.77;100.00;100171.97;5022261;28;20028;-84
2023/06/18 06:25:19;;;;;;;9.32;4.53;;;;;;;19.59;100.00;100166.91;5038408;28;20037;-84
2023/06/18 06:27:45;;;;;;;5.95;3.55;;;;;;;18.59;100.00;100172.78;5022191;28;20029;-84
2023/06/18 06:30:11;;;;;;;7.22;4.53;;;;;;;17.83;100.00;100163.88;5022054;28;20040;-84
2023/06/18 06:32:36;;;;;;;14.52;5.60;;;;;;;17.40;100.00;100150.63;5022049;28;20043;-83
2023/06/18 06:35:03;;;;;;;10.98;5.25;;;;;;;17.13;100.00;100154.63;5022187;28;20044;-85
2023/06/18 06:37:29;;;;;;;11.45;4.65;;;;;;;16.93;100.00;100151.38;5021781;28;20120;-84
2023/06/18 06:39:55;;;;;;;9.98;4.97;;;;;;;16.82;100.00;100152.19;5021922;28;20064;-84
2023/06/18 06:42:21;;;;;;;4.18;3.78;;;;;;;16.76;100.00;100145.75;5021701;28;20471;-83
2023/06/18 06:44:47;;;;;;;10.57;5.45;;;;;;;16.74;100.00;100144.34;5021822;28;20044;-83
2023/06/18 06:47:13;;;;;;;4.70;2.72;;;;;;;16.65;100.00;100130.28;5021530;28;20440;-83
2023/06/18 06:49:38;;;;;;;6.75;3.78;;;;;;;16.44;100.00;100137.03;5021547;28;20102;-83
2023/06/18 06:52:04;;;;;;;5.72;3.67;;;;;;;16.32;100.00;100122.56;5021735;28;20044;-83
2023/06/18 06:54:30;;;;;;;10.95;4.57;;;;;;;16.45;100.00;100128.66;5021639;28;20102;-83
2023/06/18 06:56:55;;;;;;;9.68;5.00;;;;;;;17.07;100.00;100133.00;5038016;28;20068;-83
2023/06/18 06:59:21;;;;;;;8.88;5.03;;;;;;;17.92;100.00;100131.72;5054232;28;20037;-84
2023/06/18 07:01:47;;;;;;;5.85;3.63;;;;;;;17.99;100.00;100129.66;5021571;28;20037;-83
2023/06/18 07:04:13;;;;;;;12.45;6.03;;;;;;;17.60;100.00;100140.25;5021092;28;20082;-82
2023/06/18 07:06:39;;;;;;;8.20;5.53;;;;;;;17.22;100.00;100146.13;5004686;28;20052;-82
2023/06/18 07:09:06;;;;;;;14.02;5.18;;;;;;;17.33;100.00;100151.56;5021361;28;20041;-83
2023/06/18 07:11:36;;;;;;;10.13;4.97;;;;;;;17.63;100.00;100147.91;5021161;28;20039;-84
2023/06/18 07:14:18;;;;;;;8.55;5.03;;;;;;;18.32;100.00;100148.03;5038789;28;20064;-84
2023/06/18 07:16:44;;;;;;;13.48;6.85;;;;;;;18.58;100.00;100143.94;5021243;28;20071;-84
2023/06/18 07:19:09;;;;;;;7.63;4.93;;;;;;;18.40;100.00;100144.94;5021138;28;20391;-81
2023/06/18 07:21:35;;;;;;;11.43;6.10;;;;;;;18.07;100.00;100142.06;5054044;28;20037;-83
2023/06/18 07:24:01;;;;;;;12.43;5.55;;;;;;;17.78;100.00;100153.69;5021029;28;20037;-84
2023/06/18 07:26:26;;;;;;;10.95;5.30;;;;;;;17.70;100.00;100150.50;5020732;28;20108;-83
2023/06/18 07:28:52;;;;;;;10.95;5.72;;;;;;;17.72;100.00;100149.19;5020963;28;20464;-82
2023/06/18 07:31:19;;;;;;;12.85;5.63;;;;;;;17.90;100.00;100140.09;5020712;28;20036;-83
2023/06/18 07:33:44;;;;;;;11.88;5.65;;;;;;;18.09;100.00;100154.38;5037283;28;20036;-82
2023/06/18 07:36:10;;;;;;;11.13;5.80;;;;;;;18.33;100.00;100151.59;5020207;28;20048;-83
2023/06/18 07:38:36;;;;;;;11.55;5.82;;;;;;;18.60;100.00;100143.66;5020842;28;20071;-84
2023/06/18 07:41:01;;;;;;;10.15;5.45;;;;;;;19.02;100.00;100160.53;5020362;28;20056;-83
2023/06/18 07:43:27;;;;;;;11.70;7.03;;;;;;;19.53;100.00;100149.63;5053631;28;20047;-83
2023/06/18 07:45:53;;;;;;;10.10;5.50;;;;;;;19.77;100.00;100153.84;5020560;28;20051;-82
2023/06/18 07:48:18;;;;;;;10.55;4.97;;;;;;;19.73;100.00;100135.50;5036713;28;20426;-82
2023/06/18 07:50:44;;;;;;;11.70;5.70;;;;;;;19.73;100.00;100154.59;5020560;28;20036;-83
2023/06/18 07:53:10;;;;;;;10.40;5.43;;;;;;;19.61;100.00;100149.22;5020482;28;20431;-83
2023/06/18 07:55:35;;;;;;;8.85;4.68;;;;;;;19.42;100.00;100150.53;5020444;28;20029;-84
2023/06/18 07:58:01;;;;;;;7.18;4.47;;;;;;;19.17;100.00;100151.78;5053284;28;20025;-83
2023/06/18 08:00:26;;;;;;;8.43;5.53;;;;;;;18.84;100.00;100150.69;5020415;28;20036;-85
2023/06/18 08:02:52;;;;;;;14.07;5.70;;;;;;;18.81;100.00;100151.16;5020408;28;20094;-84
2023/06/18 08:05:18;;;;;;;11.48;5.70;;;;;;;18.82;100.00;100155.56;5020135;28;20036;-83
2023/06/18 08:07:44;;;;;;;9.02;5.07;;;;;;;18.97;100.00;100163.16;5020323;28;20114;-84
2023/06/18 08:10:09;;;;;;;11.77;4.95;;;;;;;19.21;100.00;100152.13;5019879;28;20431;-84
2023/06/18 08:12:35;;;;;;;10.45;5.63;;;;;;;19.28;100.00;100156.31;5020186;28;20048;-83
2023/06/18 08:15:01;;;;;;;10.48;5.38;;;;;;;19.57;100.00;100156.22;5019613;28;20032;-84
2023/06/18 08:17:27;;;;;;;13.73;6.50;;;;;;;19.73;100.00;100154.59;5023578;28;20041;-84
2023/06/18 08:19:52;;;;;;;10.35;6.05;;;;;;;20.22;100.00;100154.69;5037319;28;20040;-83
2023/06/18 08:22:18;;;;;;;12.15;6.45;;;;;;;21.04;100.00;100159.16;5023381;28;20037;-83
2023/06/18 08:24:44;;;;;;;10.85;6.43;;;;;;;21.49;100.00;100157.06;5020148;28;20037;-84
2023/06/18 08:27:15;;;;;;;10.45;5.50;;;;;;;21.97;100.00;100154.34;5019422;28;20112;-83
2023/06/18 08:29:40;;;;;;;9.50;5.15;;;;;;;22.97;100.00;100152.25;5020568;28;20071;-83
2023/06/18 08:32:06;;;;;;;10.65;5.05;;;;;;;22.65;100.00;100137.88;5019922;28;20053;-84
2023/06/18 08:34:33;;;;;;;12.27;5.72;;;;;;;23.62;100.00;100148.91;5053975;28;20071;-84
2023/06/18 08:36:59;;;;;;;7.88;5.50;;;;;;;23.66;100.00;100150.81;5035880;28;20039;-83
2023/06/18 08:39:26;;;;;;;9.35;4.35;;;;;;;23.85;100.00;100150.25;5019780;28;20113;-84
2023/06/18 08:41:54;;;;;;;9.48;5.45;;;;;;;25.04;100.00;100154.06;5036792;28;20128;-84
2023/06/18 08:44:23;;;;;;;7.63;4.93;;;;;;;24.89;100.00;100147.56;5036125;28;20033;-84
2023/06/18 08:46:49;;;;;;;9.13;4.90;;;;;;;27.58;100.00;100153.91;5036271;28;20132;-84
2023/06/18 08:49:16;;;;;;;9.10;4.65;;;;;;;29.15;91.35;100148.94;5019653;28;20037;-84
2023/06/18 08:51:44;;;;;;;7.30;4.10;;;;;;;28.09;88.84;100152.13;5019962;28;20047;-86
2023/06/18 08:54:15;;;;;;;7.97;5.60;;;;;;;28.62;88.98;100143.28;5052566;28;20094;-85
2023/06/18 08:56:45;;;;;;;7.07;5.00;;;;;;;27.80;90.33;100144.94;5019556;28;20053;-84
2023/06/18 08:59:12;;;;;;;7.95;4.25;;;;;;;25.92;93.29;100127.38;5019821;28;20032;-85
2023/06/18 09:01:38;;;;;;;9.27;4.45;;;;;;;24.78;98.39;100126.75;5019148;28;20548;-85
2023/06/18 09:04:05;;;;;;;8.20;4.30;;;;;;;24.36;100.00;100130.81;5051997;28;20372;-86
2023/06/18 09:06:32;;;;;;;6.75;4.45;;;;;;;24.43;100.00;100131.34;5052146;28;20053;-85
2023/06/18 09:09:00;;;;;;;8.73;5.13;;;;;;;25.36;92.65;100124.09;5052604;28;20044;-85
2023/06/18 09:11:26;;;;;;;7.53;4.28;;;;;;;24.37;95.54;100121.47;5019597;28;20033;-85
2023/06/18 09:13:53;;;;;;;7.43;4.32;;;;;;;24.65;95.54;100128.19;5051980;28;20029;-87
2023/06/18 09:16:19;;;;;;;6.18;4.35;;;;;;;26.96;85.76;100123.75;5019020;28;20079;-86
2023/06/18 09:18:45;;;;;;;7.40;4.65;;;;;;;28.67;76.60;100115.50;5035643;28;20064;-85
2023/06/18 09:21:40;;;;;;;6.40;4.47;;;;;;;30.89;69.98;100121.84;5035681;28;20036;-85
2023/06/18 09:24:15;;;;;;;6.78;3.85;;;;;;;30.10;64.80;100117.31;5035603;28;20098;-88
2023/06/18 09:26:41;;;;;;;6.68;4.30;;;;;;;28.89;70.40;100109.97;5052306;28;20029;-86
2023/06/18 09:29:08;;;;;;;7.00;4.30;;;;;;;30.34;66.20;100116.06;5039432;28;20025;-84
2023/06/18 09:31:35;;;;;;;7.38;3.95;;;;;;;29.69;65.15;100107.41;5055892;28;20039;-84
2023/06/18 09:34:12;;;;;;;6.70;4.53;;;;;;;28.66;68.61;100097.28;5057214;28;20498;-85
2023/06/18 09:36:40;;;;;;;8.45;4.32;;;;;;;27.17;68.77;100107.69;5039541;28;20037;-84
2023/06/18 09:39:17;;;;;;;8.10;4.75;;;;;;;26.31;73.92;100081.13;5056038;28;20025;-83
2023/06/18 09:41:43;;;;;;;7.70;4.30;;;;;;;26.50;72.68;100107.88;5039556;28;20025;-85
2023/06/18 09:44:09;;;;;;;6.88;4.63;;;;;;;27.98;67.22;100093.50;5055596;28;20025;-83
2023/06/18 09:46:35;;;;;;;6.93;4.18;;;;;;;30.18;59.22;100096.28;5056994;28;20353;-83
2023/06/18 09:49:00;;;;;;;8.30;4.60;;;;;;;30.28;53.66;100095.19;5038979;28;20040;-84
2023/06/18 09:51:26;;;;;;;7.47;4.15;;;;;;;30.18;53.33;100094.31;5022872;28;20033;-83
2023/06/18 09:53:56;;;;;;;8.55;4.45;;;;;;;31.48;50.95;100068.47;5059896;28;20072;-82
2023/06/18 09:56:21;;;;;;;6.07;4.07;;;;;;;32.64;46.90;100088.56;5046286;28;20021;-83
2023/06/18 09:58:49;;;;;;;6.07;4.05;;;;;;;31.59;47.44;100073.66;5024370;28;20033;-83
2023/06/18 10:01:16;;;;;;;8.20;5.05;;;;;;;28.38;52.56;100080.72;5055352;28;20090;-84
2023/06/18 10:03:42;;;;;;;6.78;5.60;;;;;;;26.26;58.14;100069.38;5039131;28;20025;-84
2023/06/18 10:06:14;;;;;;;8.98;5.50;;;;;;;25.50;61.50;100077.44;5055172;28;20041;-84
2023/06/18 10:08:42;;;;;;;11.23;6.25;;;;;;;25.21;60.20;100063.69;5039008;28;20033;-84
2023/06/18 10:11:09;;;;;;;8.32;5.70;;;;;;;25.29;59.58;100070.50;5055426;28;20029;-83
2023/06/18 10:13:47;;;;;;;5.63;3.67;;;;;;;26.32;56.40;100070.94;5022375;28;20113;-85
2023/06/18 10:16:26;;;;;;;7.95;3.90;;;;;;;28.02;49.70;100066.88;5055206;28;20426;-83
2023/06/18 10:18:54;;;;;;;7.50;4.50;;;;;;;29.90;46.09;100059.69;5056164;28;20153;-86
2023/06/18 10:21:22;;;;;;;7.28;3.90;;;;;;;29.22;44.88;100062.69;5055153;28;20029;-84
2023/06/18 10:23:53;;;;;;;7.60;4.07;;;;;;;28.22;47.13;100060.91;5038788;28;20261;-87
2023/06/18 10:26:19;;;;;;;5.97;4.40;;;;;;;30.96;43.25;100048.34;5022093;28;20035;-86
2023/06/18 10:28:45;;;;;;;6.30;3.67;;;;;;;32.98;39.74;100064.34;5055957;28;20037;-89
2023/06/18 10:31:11;;;;;;;7.80;3.92;;;;;;;30.50;41.28;100058.97;5005757;28;20074;-84
2023/06/18 10:33:37;;;;;;;7.25;4.07;;;;;;;28.38;44.84;100055.84;5022219;28;20124;-87
2023/06/18 10:36:03;;;;;;;7.15;4.45;;;;;;;29.14;45.54;100055.13;5038441;28;20029;-82
2023/06/18 10:38:28;;;;;;;5.78;3.60;;;;;;;30.18;41.92;100041.63;5054110;28;20067;-83
2023/06/18 10:41:11;;;;;;;10.60;6.50;;;;;;;28.84;43.96;100053.94;5038087;28;20064;-85
2023/06/18 10:43:40;;;;;;;9.95;5.53;;;;;;;27.82;46.37;100057.09;5054561;28;20025;-92
2023/06/18 10:46:13;;;;;;;6.68;4.38;;;;;;;27.22;47.54;100049.66;5021620;28;20118;-85
2023/06/18 10:48:40;;;;;;;7.18;4.28;;;;;;;26.83;48.57;100047.28;5038175;28;20120;-85
2023/06/18 10:51:15;;;;;;;7.03;3.97;;;;;;;26.56;50.17;100056.28;5054476;28;20036;-85
2023/06/18 10:53:46;;;;;;;7.82;3.55;;;;;;;25.76;51.61;100047.69;5021502;28;20119;-85
2023/06/18 10:56:14;;;;;;;4.97;3.60;;;;;;;24.88;54.33;100052.44;5037884;28;20028;-88
2023/06/18 10:58:41;;;;;;;7.20;3.63;;;;;;;24.27;56.70;100050.13;5021376;28;20082;-85
2023/06/18 11:01:07;;;;;;;9.27;4.28;;;;;;;23.70;61.39;100055.81;5005148;28;20369;-85
2023/06/18 11:03:34;;;;;;;11.50;4.32;;;;;;;22.77;80.82;100048.84;5038210;28;20063;-84
2023/06/18 11:06:03;;;;;;;6.30;3.45;;;;;;;21.95;98.93;100048.66;5037904;28;20032;-82
2023/06/18 11:08:31;;;;;;;6.63;3.55;;;;;;;21.66;100.00;100042.00;5026760;28;20033;-81
2023/06/18 11:11:05;;;;;;;6.65;3.38;;;;;;;21.83;100.00;100034.41;5046079;28;20033;-83
2023/06/18 11:13:35;;;;;;;6.93;3.70;;;;;;;24.22;100.00;100042.72;5022437;28;20040;-85